Livingston, Montana
Current Conditions -  °F | °C
As of 10:53 AM on Sunday 25 Jan 2015 (Local Time) from KLVM Reporting Station
Clear Clear  
Wind Chill: 50°   Ceiling: Unl
Heat Index: 50°   Visibility: 10mi
Dew Point: 28°   Wind: 33mph
Humidity: 43%   Direction: 220°SW
Pressure: 30.11"   Gusts: 49mph
Location:  45.66°N, 110.56°W
Report Text: KLVM 251753Z AUTO 22029G43KT 10SM CLR 10/M02 A3011 RMK AO2 PK WND 23043/1753 SLP188 T01001022 10106 20067 58001
Loading
Personal Weather Stations






























Interactive Weather Map New forecast layout! Learn more

10-Day Weather Forecast

Advertisements
Track Severe Weather on mobile